EWG44E EDDS-HEGN
Flight info
| Callsign | EWG44E |
|---|---|
| Flight time | 2h 41m |
| Altitude | 35000 |
| Route | ABTAL4B ABTAL L173 RIXED Y161 RIDAR Z98 MIQ L605 ESEGA DCT RADLY DCT PODET DCT PIXAL DCT KOMAR DCT EDALA DCT GACMO DCT NIK DCT PETAK DCT DIMIS/N0448F370 UL604 SALUN N705 BOPIX N710 TAKRI M720 FYM M872 BOPOB BOPOB1A |
| Aircraft | A320/M-SDE3FGHIRWY/LB1 |
Departure
| Time | 2026-05-05 18:15 |
|---|---|
| Airport | Stuttgart Airport (EDDS) |
Arrival
| Time | 2026-05-05 20:56 |
|---|---|
| Airport | Hurghada International Airport (HEGN) |
| Time | Latitude | Longitude | Altitude | Speed | Heading |
|---|---|---|---|---|---|
| 2026-05-05 16:54 | 48.68914 | 9.19513 | 1315 ft | 0 kts | 344° |
| 2026-05-05 18:01 | 48.68900 | 9.19519 | 1314 ft | 4 kts | 344° |
| 2026-05-05 18:01 | 48.68875 | 9.19530 | 1313 ft | 4 kts | 344° |
| 2026-05-05 18:01 | 48.68851 | 9.19538 | 1311 ft | 4 kts | 14° |
| 2026-05-05 18:01 | 48.68833 | 9.19517 | 1311 ft | 4 kts | 69° |
| 2026-05-05 18:02 | 48.68827 | 9.19492 | 1312 ft | 1 kts | 74° |
| 2026-05-05 18:02 | 48.68827 | 9.19491 | 1312 ft | 1 kts | 74° |
| 2026-05-05 18:04 | 48.68831 | 9.19512 | 1311 ft | 11 kts | 74° |
| 2026-05-05 18:04 | 48.68868 | 9.19703 | 1307 ft | 17 kts | 74° |
| 2026-05-05 18:05 | 48.68886 | 9.19885 | 1302 ft | 12 kts | 121° |
| 2026-05-05 18:05 | 48.68817 | 9.19956 | 1296 ft | 15 kts | 91° |
| 2026-05-05 18:05 | 48.68851 | 9.20100 | 1293 ft | 13 kts | 73° |
| 2026-05-05 18:05 | 48.68877 | 9.20236 | 1290 ft | 15 kts | 74° |
| 2026-05-05 18:06 | 48.68908 | 9.20402 | 1290 ft | 18 kts | 74° |
| 2026-05-05 18:06 | 48.68924 | 9.20490 | 1284 ft | 9 kts | 74° |
| 2026-05-05 18:06 | 48.68954 | 9.20644 | 1279 ft | 18 kts | 73° |
| 2026-05-05 18:06 | 48.68991 | 9.20837 | 1277 ft | 15 kts | 75° |
| 2026-05-05 18:07 | 48.69021 | 9.21000 | 1272 ft | 17 kts | 73° |
| 2026-05-05 18:07 | 48.69059 | 9.21196 | 1266 ft | 21 kts | 74° |
| 2026-05-05 18:07 | 48.69102 | 9.21428 | 1261 ft | 25 kts | 74° |
| 2026-05-05 18:07 | 48.69152 | 9.21691 | 1263 ft | 27 kts | 75° |
| 2026-05-05 18:08 | 48.69205 | 9.21969 | 1253 ft | 24 kts | 74° |
| 2026-05-05 18:08 | 48.69251 | 9.22214 | 1256 ft | 21 kts | 73° |
| 2026-05-05 18:08 | 48.69293 | 9.22440 | 1244 ft | 24 kts | 75° |
| 2026-05-05 18:08 | 48.69343 | 9.22696 | 1232 ft | 27 kts | 73° |
| 2026-05-05 18:09 | 48.69388 | 9.22937 | 1227 ft | 19 kts | 75° |
| 2026-05-05 18:09 | 48.69428 | 9.23149 | 1225 ft | 23 kts | 74° |
| 2026-05-05 18:09 | 48.69470 | 9.23372 | 1231 ft | 21 kts | 73° |
| 2026-05-05 18:09 | 48.69505 | 9.23554 | 1246 ft | 17 kts | 73° |
| 2026-05-05 18:10 | 48.69508 | 9.23706 | 1254 ft | 14 kts | 120° |
| 2026-05-05 18:10 | 48.69478 | 9.23854 | 1252 ft | 15 kts | 86° |
| 2026-05-05 18:10 | 48.69498 | 9.23967 | 1258 ft | 8 kts | 74° |
| 2026-05-05 18:10 | 48.69509 | 9.24028 | 1261 ft | 5 kts | 74° |
| 2026-05-05 18:11 | 48.69523 | 9.24098 | 1260 ft | 7 kts | 74° |
| 2026-05-05 18:11 | 48.69542 | 9.24197 | 1258 ft | 11 kts | 74° |
| 2026-05-05 18:11 | 48.69544 | 9.24253 | 1253 ft | 0 kts | 99° |
| 2026-05-05 18:12 | 48.69535 | 9.24285 | 1256 ft | 9 kts | 124° |
| 2026-05-05 18:12 | 48.69497 | 9.24318 | 1250 ft | 0 kts | 161° |
| 2026-05-05 18:13 | 48.69496 | 9.24319 | 1250 ft | 2 kts | 161° |
| 2026-05-05 18:13 | 48.69426 | 9.24317 | 1193 ft | 27 kts | 193° |
| 2026-05-05 18:13 | 48.69378 | 9.24256 | 1192 ft | 1 kts | 258° |
| 2026-05-05 18:14 | 48.69378 | 9.24253 | 1192 ft | 0 kts | 253° |
| 2026-05-05 18:14 | 48.69377 | 9.24251 | 1192 ft | 2 kts | 253° |
| 2026-05-05 18:14 | 48.69319 | 9.23945 | 1198 ft | 67 kts | 254° |
| 2026-05-05 18:14 | 48.69129 | 9.22947 | 1218 ft | 128 kts | 253° |
| 2026-05-05 18:15 | 48.68842 | 9.21420 | 1359 ft | 163 kts | 253° |
| 2026-05-05 18:15 | 48.68553 | 9.19844 | 2147 ft | 154 kts | 254° |
| 2026-05-05 18:15 | 48.68255 | 9.18267 | 2769 ft | 163 kts | 253° |
| 2026-05-05 18:15 | 48.67914 | 9.16520 | 3075 ft | 184 kts | 253° |
| 2026-05-05 18:16 | 48.67526 | 9.14556 | 3297 ft | 206 kts | 252° |
| 2026-05-05 18:16 | 48.67094 | 9.12382 | 3603 ft | 225 kts | 252° |
| 2026-05-05 18:16 | 48.66463 | 9.10210 | 4380 ft | 227 kts | 230° |
| 2026-05-05 18:16 | 48.65145 | 9.08885 | 4867 ft | 234 kts | 197° |
| 2026-05-05 18:17 | 48.63515 | 9.09076 | 4978 ft | 245 kts | 160° |
| 2026-05-05 18:17 | 48.62131 | 9.10591 | 4999 ft | 254 kts | 137° |
| 2026-05-05 18:17 | 48.61336 | 9.13005 | 5009 ft | 266 kts | 103° |
| 2026-05-05 18:17 | 48.61337 | 9.15910 | 5008 ft | 286 kts | 83° |
| 2026-05-05 18:18 | 48.61502 | 9.18920 | 5003 ft | 288 kts | 90° |
| 2026-05-05 18:18 | 48.61508 | 9.21959 | 5019 ft | 290 kts | 93° |
| 2026-05-05 18:18 | 48.61442 | 9.25044 | 5682 ft | 294 kts | 95° |
| 2026-05-05 18:18 | 48.61362 | 9.28137 | 6545 ft | 296 kts | 95° |
| 2026-05-05 18:19 | 48.61291 | 9.31273 | 7341 ft | 300 kts | 95° |
| 2026-05-05 18:19 | 48.61231 | 9.34448 | 8104 ft | 304 kts | 94° |
| 2026-05-05 18:19 | 48.61182 | 9.37664 | 8877 ft | 308 kts | 94° |
| 2026-05-05 18:19 | 48.61138 | 9.40918 | 9663 ft | 312 kts | 95° |
| 2026-05-05 18:20 | 48.61099 | 9.44255 | 10141 ft | 327 kts | 94° |
| 2026-05-05 18:20 | 48.61057 | 9.47801 | 10342 ft | 350 kts | 94° |
| 2026-05-05 18:20 | 48.61014 | 9.51605 | 10501 ft | 373 kts | 94° |
| 2026-05-05 18:20 | 48.60969 | 9.55626 | 10721 ft | 390 kts | 94° |
| 2026-05-05 18:21 | 48.60928 | 9.59709 | 11288 ft | 396 kts | 93° |
| 2026-05-05 18:21 | 48.60886 | 9.63880 | 11933 ft | 399 kts | 93° |
| 2026-05-05 18:21 | 48.60839 | 9.68097 | 12594 ft | 402 kts | 93° |
| 2026-05-05 18:21 | 48.60786 | 9.72348 | 13223 ft | 406 kts | 94° |
| 2026-05-05 18:22 | 48.60728 | 9.76627 | 13843 ft | 409 kts | 93° |
| 2026-05-05 18:22 | 48.60666 | 9.80947 | 14440 ft | 411 kts | 93° |
| 2026-05-05 18:22 | 48.60602 | 9.85278 | 15063 ft | 413 kts | 94° |
| 2026-05-05 18:22 | 48.60537 | 9.89634 | 15685 ft | 414 kts | 94° |
| 2026-05-05 18:23 | 48.60140 | 9.93916 | 16282 ft | 412 kts | 108° |
| 2026-05-05 18:23 | 48.59355 | 9.98095 | 16902 ft | 413 kts | 109° |
| 2026-05-05 18:23 | 48.58544 | 10.02261 | 17492 ft | 415 kts | 109° |
| 2026-05-05 18:23 | 48.57703 | 10.06450 | 18050 ft | 418 kts | 109° |
| 2026-05-05 18:24 | 48.56851 | 10.10655 | 18552 ft | 420 kts | 109° |
| 2026-05-05 18:24 | 48.55994 | 10.14877 | 19031 ft | 422 kts | 109° |
| 2026-05-05 18:24 | 48.55146 | 10.19063 | 19497 ft | 424 kts | 109° |
| 2026-05-05 18:24 | 48.54270 | 10.23383 | 19975 ft | 426 kts | 109° |
| 2026-05-05 18:25 | 48.53415 | 10.27597 | 20416 ft | 428 kts | 109° |
| 2026-05-05 18:25 | 48.52825 | 10.30505 | 20715 ft | 429 kts | 109° |
| 2026-05-05 18:25 | 48.51666 | 10.36218 | 21279 ft | 431 kts | 109° |
| 2026-05-05 18:25 | 48.50786 | 10.40554 | 21696 ft | 433 kts | 109° |
| 2026-05-05 18:26 | 48.49902 | 10.44918 | 22034 ft | 437 kts | 109° |
| 2026-05-05 18:26 | 48.49329 | 10.49223 | 22327 ft | 444 kts | 98° |
| 2026-05-05 18:26 | 48.49032 | 10.53874 | 22681 ft | 447 kts | 97° |
| 2026-05-05 18:26 | 48.48737 | 10.58559 | 23037 ft | 449 kts | 97° |
| 2026-05-05 18:27 | 48.48441 | 10.63252 | 23393 ft | 452 kts | 97° |
| 2026-05-05 18:27 | 48.48141 | 10.67979 | 23692 ft | 454 kts | 98° |
| 2026-05-05 18:27 | 48.47842 | 10.72716 | 23990 ft | 455 kts | 98° |
| 2026-05-05 18:27 | 48.47542 | 10.77476 | 24285 ft | 457 kts | 98° |
| 2026-05-05 18:28 | 48.46935 | 10.87042 | 24835 ft | 460 kts | 98° |
| 2026-05-05 18:28 | 48.46626 | 10.91860 | 25085 ft | 462 kts | 99° |
| 2026-05-05 18:28 | 48.46313 | 10.96684 | 25347 ft | 464 kts | 99° |
| 2026-05-05 18:29 | 48.45998 | 11.01485 | 25612 ft | 466 kts | 99° |
| 2026-05-05 18:29 | 48.45677 | 11.06347 | 25865 ft | 467 kts | 99° |
| 2026-05-05 18:29 | 48.45351 | 11.11224 | 26123 ft | 468 kts | 99° |
| 2026-05-05 18:29 | 48.45022 | 11.16098 | 26358 ft | 470 kts | 99° |
| 2026-05-05 18:30 | 48.44689 | 11.21012 | 26588 ft | 471 kts | 99° |
| 2026-05-05 18:30 | 48.44356 | 11.25930 | 26802 ft | 472 kts | 99° |
| 2026-05-05 18:30 | 48.44022 | 11.30861 | 26980 ft | 474 kts | 99° |
| 2026-05-05 18:30 | 48.43684 | 11.35808 | 27242 ft | 474 kts | 99° |
| 2026-05-05 18:31 | 48.43344 | 11.40746 | 27543 ft | 474 kts | 100° |
| 2026-05-05 18:31 | 48.43002 | 11.45681 | 27843 ft | 473 kts | 100° |
| 2026-05-05 18:31 | 48.42657 | 11.50599 | 28180 ft | 472 kts | 100° |
| 2026-05-05 18:31 | 48.42311 | 11.55514 | 28502 ft | 471 kts | 100° |
| 2026-05-05 18:32 | 48.41964 | 11.60412 | 28811 ft | 470 kts | 100° |
| 2026-05-05 18:32 | 48.41620 | 11.65245 | 29117 ft | 470 kts | 100° |
| 2026-05-05 18:32 | 48.41271 | 11.70122 | 29430 ft | 469 kts | 100° |
| 2026-05-05 18:32 | 48.40918 | 11.75022 | 29653 ft | 470 kts | 100° |
| 2026-05-05 18:33 | 48.40563 | 11.79907 | 29922 ft | 471 kts | 100° |
| 2026-05-05 18:33 | 48.40203 | 11.84805 | 30167 ft | 471 kts | 101° |
| 2026-05-05 18:33 | 48.39839 | 11.89714 | 30410 ft | 471 kts | 101° |
| 2026-05-05 18:33 | 48.39477 | 11.94609 | 30652 ft | 471 kts | 101° |
| 2026-05-05 18:34 | 48.39116 | 11.99506 | 30896 ft | 471 kts | 101° |
| 2026-05-05 18:34 | 48.38751 | 12.04402 | 31141 ft | 471 kts | 101° |
| 2026-05-05 18:34 | 48.38384 | 12.09300 | 31393 ft | 471 kts | 101° |
| 2026-05-05 18:34 | 48.38012 | 12.14190 | 31596 ft | 471 kts | 101° |
| 2026-05-05 18:35 | 48.37637 | 12.19092 | 31792 ft | 472 kts | 101° |
| 2026-05-05 18:35 | 48.37260 | 12.24013 | 32024 ft | 473 kts | 101° |
| 2026-05-05 18:35 | 48.36883 | 12.28915 | 32269 ft | 473 kts | 101° |
| 2026-05-05 18:35 | 48.36506 | 12.33828 | 32518 ft | 473 kts | 101° |
| 2026-05-05 18:36 | 48.36254 | 12.37084 | 32689 ft | 473 kts | 101° |
| 2026-05-05 18:36 | 48.35875 | 12.41951 | 32947 ft | 472 kts | 101° |
| 2026-05-05 18:36 | 48.35489 | 12.46856 | 33226 ft | 472 kts | 101° |
| 2026-05-05 18:36 | 48.35101 | 12.51754 | 33481 ft | 472 kts | 101° |
| 2026-05-05 18:37 | 48.34585 | 12.58246 | 33829 ft | 472 kts | 101° |
| 2026-05-05 18:37 | 48.34196 | 12.63132 | 34042 ft | 471 kts | 101° |
| 2026-05-05 18:37 | 48.33931 | 12.66442 | 34175 ft | 471 kts | 101° |
| 2026-05-05 18:37 | 48.33535 | 12.71335 | 34396 ft | 471 kts | 101° |
| 2026-05-05 18:38 | 48.33142 | 12.76150 | 34603 ft | 470 kts | 101° |
| 2026-05-05 18:38 | 48.32741 | 12.81026 | 34771 ft | 470 kts | 101° |
| 2026-05-05 18:38 | 48.31933 | 12.90823 | 34816 ft | 474 kts | 101° |
| 2026-05-05 18:39 | 48.31109 | 13.00657 | 34803 ft | 474 kts | 101° |
| 2026-05-05 18:39 | 48.30104 | 13.10428 | 34808 ft | 471 kts | 109° |
| 2026-05-05 18:40 | 48.27491 | 13.19283 | 34802 ft | 459 kts | 128° |
| 2026-05-05 18:40 | 48.23279 | 13.26293 | 34801 ft | 448 kts | 144° |
| 2026-05-05 18:41 | 48.18514 | 13.32340 | 34793 ft | 449 kts | 144° |
| 2026-05-05 18:41 | 48.13755 | 13.38428 | 34772 ft | 450 kts | 143° |
| 2026-05-05 18:42 | 48.09006 | 13.44479 | 34776 ft | 451 kts | 143° |
| 2026-05-05 18:42 | 48.04205 | 13.50557 | 34781 ft | 452 kts | 144° |
| 2026-05-05 18:43 | 47.99397 | 13.56630 | 34784 ft | 452 kts | 144° |
| 2026-05-05 18:43 | 47.94587 | 13.62687 | 34786 ft | 452 kts | 144° |
| 2026-05-05 18:44 | 47.88912 | 13.69817 | 34773 ft | 453 kts | 143° |
| 2026-05-05 18:44 | 47.79252 | 13.81907 | 34782 ft | 454 kts | 143° |
| 2026-05-05 18:45 | 47.69544 | 13.94012 | 34823 ft | 455 kts | 143° |
| 2026-05-05 18:45 | 47.59814 | 14.06066 | 34818 ft | 456 kts | 143° |
| 2026-05-05 18:46 | 47.50122 | 14.18028 | 34833 ft | 456 kts | 143° |
| 2026-05-05 18:46 | 47.40345 | 14.30041 | 34846 ft | 456 kts | 143° |
| 2026-05-05 18:47 | 47.30556 | 14.41983 | 34867 ft | 457 kts | 143° |
| 2026-05-05 18:47 | 47.20756 | 14.53885 | 34881 ft | 457 kts | 143° |
| 2026-05-05 18:48 | 47.10929 | 14.65776 | 34874 ft | 458 kts | 143° |
| 2026-05-05 18:48 | 47.01050 | 14.77658 | 34900 ft | 459 kts | 143° |
| 2026-05-05 18:49 | 46.91159 | 14.89503 | 34896 ft | 460 kts | 143° |
| 2026-05-05 18:49 | 46.81212 | 15.01350 | 34905 ft | 462 kts | 144° |
| 2026-05-05 18:50 | 46.71244 | 15.13158 | 34921 ft | 462 kts | 144° |
| 2026-05-05 18:50 | 46.61005 | 15.24194 | 34920 ft | 460 kts | 152° |
| 2026-05-05 18:51 | 46.50040 | 15.33849 | 34930 ft | 460 kts | 152° |
| 2026-05-05 18:51 | 46.39097 | 15.43493 | 34951 ft | 460 kts | 152° |
| 2026-05-05 18:52 | 46.28099 | 15.53106 | 34943 ft | 462 kts | 152° |
| 2026-05-05 18:52 | 46.17100 | 15.62712 | 34963 ft | 463 kts | 152° |
| 2026-05-05 18:53 | 46.06489 | 15.73150 | 34972 ft | 465 kts | 148° |
| 2026-05-05 18:53 | 45.95905 | 15.83808 | 34989 ft | 464 kts | 149° |
| 2026-05-05 18:54 | 45.85238 | 15.94259 | 34993 ft | 464 kts | 149° |
| 2026-05-05 18:54 | 45.74592 | 16.04695 | 34977 ft | 464 kts | 149° |
| 2026-05-05 18:55 | 45.63920 | 16.15142 | 35000 ft | 464 kts | 149° |
| 2026-05-05 18:55 | 45.53251 | 16.25516 | 34994 ft | 465 kts | 149° |
| 2026-05-05 18:56 | 45.42529 | 16.35875 | 34983 ft | 466 kts | 149° |
| 2026-05-05 18:56 | 45.31798 | 16.46212 | 34992 ft | 466 kts | 149° |
| 2026-05-05 18:57 | 45.21106 | 16.56455 | 34991 ft | 467 kts | 149° |
| 2026-05-05 18:57 | 45.10290 | 16.66736 | 34990 ft | 468 kts | 149° |
| 2026-05-05 18:58 | 44.99461 | 16.76959 | 34991 ft | 468 kts | 149° |
| 2026-05-05 18:58 | 44.88618 | 16.87216 | 35002 ft | 470 kts | 149° |
| 2026-05-05 18:59 | 44.77794 | 16.97504 | 34999 ft | 469 kts | 149° |
| 2026-05-05 18:59 | 44.66930 | 17.07734 | 35002 ft | 470 kts | 149° |
| 2026-05-05 19:00 | 44.56044 | 17.17963 | 35025 ft | 470 kts | 149° |
| 2026-05-05 19:00 | 44.45174 | 17.28096 | 35025 ft | 473 kts | 149° |
| 2026-05-05 19:01 | 44.34210 | 17.38287 | 35059 ft | 473 kts | 149° |
| 2026-05-05 19:01 | 44.23220 | 17.48461 | 35058 ft | 475 kts | 149° |
| 2026-05-05 19:02 | 44.12414 | 17.59170 | 35059 ft | 478 kts | 146° |
| 2026-05-05 19:02 | 44.01676 | 17.70065 | 35066 ft | 478 kts | 147° |
| 2026-05-05 19:03 | 43.90919 | 17.80758 | 35080 ft | 479 kts | 147° |
| 2026-05-05 19:03 | 43.80090 | 17.91514 | 35077 ft | 479 kts | 147° |
| 2026-05-05 19:04 | 43.69217 | 18.02254 | 35090 ft | 480 kts | 147° |
| 2026-05-05 19:04 | 43.58342 | 18.12959 | 35101 ft | 480 kts | 147° |
| 2026-05-05 19:05 | 43.47448 | 18.23625 | 35089 ft | 479 kts | 148° |
| 2026-05-05 19:05 | 43.36601 | 18.34162 | 35091 ft | 479 kts | 148° |
| 2026-05-05 19:06 | 43.25775 | 18.44692 | 35089 ft | 480 kts | 147° |
| 2026-05-05 19:06 | 43.14833 | 18.55269 | 35088 ft | 482 kts | 148° |
| 2026-05-05 19:07 | 43.03991 | 18.66090 | 35080 ft | 483 kts | 146° |
| 2026-05-05 19:07 | 42.93145 | 18.77007 | 35090 ft | 484 kts | 147° |
| 2026-05-05 19:08 | 42.82241 | 18.87831 | 35078 ft | 485 kts | 146° |
| 2026-05-05 19:08 | 42.76522 | 18.92602 | 35076 ft | 479 kts | 160° |
| 2026-05-05 19:08 | 42.70217 | 18.95338 | 35084 ft | 475 kts | 168° |
| 2026-05-05 19:09 | 42.57510 | 19.00350 | 35074 ft | 476 kts | 168° |
| 2026-05-05 19:09 | 42.44814 | 19.05328 | 35089 ft | 476 kts | 168° |
| 2026-05-05 19:10 | 42.32141 | 19.10292 | 35089 ft | 477 kts | 168° |
| 2026-05-05 19:10 | 42.19341 | 19.15254 | 35075 ft | 478 kts | 168° |
| 2026-05-05 19:11 | 42.11302 | 19.18371 | 35069 ft | 479 kts | 168° |
| 2026-05-05 19:11 | 42.04881 | 19.20861 | 35067 ft | 479 kts | 168° |
| 2026-05-05 19:12 | 41.98457 | 19.23340 | 35067 ft | 480 kts | 168° |
| 2026-05-05 19:12 | 41.92079 | 19.25797 | 35072 ft | 480 kts | 168° |
| 2026-05-05 19:13 | 41.85645 | 19.28269 | 35080 ft | 480 kts | 168° |
| 2026-05-05 19:13 | 41.79256 | 19.30766 | 35082 ft | 482 kts | 165° |
| 2026-05-05 19:14 | 41.73195 | 19.34745 | 35075 ft | 488 kts | 153° |
| 2026-05-05 19:14 | 41.67301 | 19.39315 | 35083 ft | 489 kts | 153° |
| 2026-05-05 19:15 | 41.61445 | 19.43837 | 35087 ft | 489 kts | 153° |
| 2026-05-05 19:15 | 41.55548 | 19.48364 | 35092 ft | 490 kts | 153° |
| 2026-05-05 19:16 | 41.49626 | 19.52901 | 35080 ft | 491 kts | 154° |
| 2026-05-05 19:16 | 41.43705 | 19.57436 | 35083 ft | 492 kts | 154° |
| 2026-05-05 19:17 | 41.37761 | 19.61987 | 35083 ft | 492 kts | 153° |
| 2026-05-05 19:17 | 41.31816 | 19.66533 | 35087 ft | 493 kts | 153° |
| 2026-05-05 19:18 | 41.25858 | 19.71074 | 35084 ft | 494 kts | 154° |
| 2026-05-05 19:18 | 41.19878 | 19.75607 | 35085 ft | 495 kts | 154° |
| 2026-05-05 19:19 | 41.13930 | 19.80113 | 35099 ft | 496 kts | 153° |
| 2026-05-05 19:19 | 41.07930 | 19.84661 | 35090 ft | 497 kts | 153° |
| 2026-05-05 19:20 | 41.01913 | 19.89219 | 35091 ft | 498 kts | 153° |
| 2026-05-05 19:20 | 40.95896 | 19.93757 | 35098 ft | 499 kts | 154° |
| 2026-05-05 19:21 | 40.89882 | 19.98267 | 35103 ft | 499 kts | 154° |
| 2026-05-05 19:21 | 40.83832 | 20.02802 | 35098 ft | 499 kts | 154° |
| 2026-05-05 19:22 | 40.77784 | 20.07328 | 35112 ft | 500 kts | 153° |
| 2026-05-05 19:22 | 40.71735 | 20.11856 | 35120 ft | 500 kts | 153° |
| 2026-05-05 19:23 | 40.60406 | 20.20310 | 35100 ft | 500 kts | 153° |
| 2026-05-05 19:23 | 40.48334 | 20.29243 | 35102 ft | 501 kts | 153° |
| 2026-05-05 19:24 | 40.36173 | 20.38247 | 35118 ft | 501 kts | 153° |
| 2026-05-05 19:24 | 40.23994 | 20.47196 | 35120 ft | 502 kts | 153° |
| 2026-05-05 19:25 | 40.11787 | 20.56151 | 35111 ft | 503 kts | 153° |
| 2026-05-05 19:25 | 39.99376 | 20.64543 | 35127 ft | 501 kts | 159° |
| 2026-05-05 19:26 | 39.86638 | 20.71973 | 35123 ft | 502 kts | 158° |
| 2026-05-05 19:26 | 39.74095 | 20.79650 | 35149 ft | 501 kts | 158° |
| 2026-05-05 19:27 | 39.61586 | 20.87711 | 35122 ft | 503 kts | 154° |
| 2026-05-05 19:27 | 39.49255 | 20.96355 | 35130 ft | 503 kts | 154° |
| 2026-05-05 19:28 | 39.36851 | 21.04740 | 35131 ft | 503 kts | 155° |
| 2026-05-05 19:28 | 39.26547 | 21.11713 | 35147 ft | 503 kts | 154° |
| 2026-05-05 19:29 | 39.14112 | 21.20117 | 35129 ft | 504 kts | 154° |
| 2026-05-05 19:29 | 38.99625 | 21.29844 | 35134 ft | 504 kts | 155° |
| 2026-05-05 19:30 | 38.89210 | 21.36819 | 35121 ft | 504 kts | 154° |
| 2026-05-05 19:30 | 38.76830 | 21.45086 | 35154 ft | 504 kts | 154° |
| 2026-05-05 19:31 | 38.64358 | 21.53351 | 35145 ft | 504 kts | 154° |
| 2026-05-05 19:31 | 38.51916 | 21.61597 | 35131 ft | 503 kts | 154° |
| 2026-05-05 19:32 | 38.31267 | 21.74722 | 34323 ft | 482 kts | 167° |
| 2026-05-05 19:32 | 38.24814 | 21.77247 | 34691 ft | 485 kts | 151° |
| 2026-05-05 19:33 | 38.22019 | 21.79586 | 35309 ft | 477 kts | 144° |
| 2026-05-05 19:33 | 38.19395 | 21.82107 | 35927 ft | 468 kts | 144° |
| 2026-05-05 19:33 | 38.16852 | 21.84547 | 36541 ft | 458 kts | 148° |
| 2026-05-05 19:33 | 38.14194 | 21.86710 | 36993 ft | 452 kts | 153° |
| 2026-05-05 19:34 | 38.11439 | 21.88640 | 37128 ft | 453 kts | 156° |
| 2026-05-05 19:34 | 38.08589 | 21.90420 | 37153 ft | 458 kts | 158° |
| 2026-05-05 19:35 | 37.99771 | 21.95696 | 37151 ft | 476 kts | 157° |
| 2026-05-05 19:35 | 37.93836 | 21.99519 | 37153 ft | 486 kts | 155° |
| 2026-05-05 19:36 | 37.87785 | 22.03527 | 37152 ft | 493 kts | 155° |
| 2026-05-05 19:36 | 37.81718 | 22.07490 | 37154 ft | 494 kts | 156° |
| 2026-05-05 19:37 | 37.75586 | 22.11437 | 37161 ft | 495 kts | 156° |
| 2026-05-05 19:37 | 37.69440 | 22.15390 | 37157 ft | 495 kts | 156° |
| 2026-05-05 19:38 | 37.63289 | 22.19342 | 37157 ft | 496 kts | 156° |
| 2026-05-05 19:38 | 37.57143 | 22.23289 | 37163 ft | 496 kts | 156° |
| 2026-05-05 19:39 | 37.50997 | 22.27230 | 37166 ft | 495 kts | 156° |
| 2026-05-05 19:39 | 37.44854 | 22.31166 | 37166 ft | 495 kts | 156° |
| 2026-05-05 19:40 | 37.38714 | 22.35098 | 37144 ft | 495 kts | 156° |
| 2026-05-05 19:40 | 37.31106 | 22.39912 | 37149 ft | 495 kts | 156° |
| 2026-05-05 19:41 | 37.18786 | 22.47707 | 37141 ft | 496 kts | 156° |
| 2026-05-05 19:41 | 37.06458 | 22.55475 | 37114 ft | 497 kts | 156° |
| 2026-05-05 19:42 | 36.94171 | 22.63188 | 37113 ft | 498 kts | 156° |
| 2026-05-05 19:42 | 36.81780 | 22.70933 | 37109 ft | 498 kts | 156° |
| 2026-05-05 19:43 | 36.69490 | 22.78603 | 37115 ft | 499 kts | 156° |
| 2026-05-05 19:43 | 36.57042 | 22.86340 | 37094 ft | 500 kts | 156° |
| 2026-05-05 19:44 | 36.44573 | 22.94076 | 37114 ft | 500 kts | 156° |
| 2026-05-05 19:44 | 36.32170 | 23.01710 | 37118 ft | 501 kts | 156° |
| 2026-05-05 19:45 | 36.19699 | 23.09394 | 37129 ft | 501 kts | 156° |
| 2026-05-05 19:45 | 36.07189 | 23.17050 | 37129 ft | 501 kts | 156° |
| 2026-05-05 19:46 | 35.94742 | 23.24649 | 37130 ft | 501 kts | 156° |
| 2026-05-05 19:46 | 35.82293 | 23.32228 | 37119 ft | 501 kts | 156° |
| 2026-05-05 19:47 | 35.69850 | 23.39772 | 37139 ft | 501 kts | 156° |
| 2026-05-05 19:47 | 35.57306 | 23.47331 | 37139 ft | 502 kts | 156° |
| 2026-05-05 19:48 | 35.49232 | 23.52205 | 37148 ft | 502 kts | 156° |
| 2026-05-05 19:48 | 35.42996 | 23.55961 | 37151 ft | 502 kts | 156° |
| 2026-05-05 19:49 | 35.36755 | 23.59712 | 37150 ft | 502 kts | 156° |
| 2026-05-05 19:49 | 35.30525 | 23.63455 | 37126 ft | 502 kts | 156° |
| 2026-05-05 19:50 | 35.24283 | 23.67190 | 37143 ft | 502 kts | 156° |
| 2026-05-05 19:50 | 35.18023 | 23.71008 | 37151 ft | 503 kts | 155° |
| 2026-05-05 19:51 | 35.11863 | 23.74960 | 37167 ft | 504 kts | 154° |
| 2026-05-05 19:51 | 35.05661 | 23.78966 | 37154 ft | 504 kts | 155° |
| 2026-05-05 19:52 | 34.99449 | 23.82910 | 37127 ft | 504 kts | 155° |
| 2026-05-05 19:52 | 34.93209 | 23.86838 | 37146 ft | 504 kts | 155° |
| 2026-05-05 19:53 | 34.87013 | 23.90738 | 37142 ft | 504 kts | 155° |
| 2026-05-05 19:53 | 34.77947 | 23.96443 | 37137 ft | 505 kts | 155° |
| 2026-05-05 19:54 | 34.65451 | 24.04307 | 37141 ft | 505 kts | 155° |
| 2026-05-05 19:54 | 34.52931 | 24.12148 | 37150 ft | 506 kts | 155° |
| 2026-05-05 19:55 | 34.40482 | 24.19915 | 37132 ft | 506 kts | 156° |
| 2026-05-05 19:55 | 34.27930 | 24.27719 | 37150 ft | 506 kts | 156° |
| 2026-05-05 19:56 | 34.15389 | 24.35478 | 37140 ft | 506 kts | 156° |
| 2026-05-05 19:56 | 34.02856 | 24.43228 | 37153 ft | 506 kts | 155° |
| 2026-05-05 19:56 | 33.97085 | 24.48128 | 37146 ft | 511 kts | 139° |
| 2026-05-05 19:57 | 33.91818 | 24.53869 | 37129 ft | 511 kts | 139° |
| 2026-05-05 19:57 | 33.81333 | 24.65090 | 37146 ft | 511 kts | 140° |
| 2026-05-05 19:58 | 33.70702 | 24.76459 | 37149 ft | 511 kts | 140° |
| 2026-05-05 19:58 | 33.60138 | 24.87715 | 37142 ft | 511 kts | 140° |
| 2026-05-05 19:59 | 33.49504 | 24.99032 | 37148 ft | 511 kts | 140° |
| 2026-05-05 19:59 | 33.38847 | 25.10324 | 37154 ft | 511 kts | 140° |
| 2026-05-05 20:00 | 33.30788 | 25.18840 | 37140 ft | 510 kts | 140° |
| 2026-05-05 20:00 | 33.20114 | 25.30073 | 37143 ft | 511 kts | 140° |
| 2026-05-05 20:01 | 33.09419 | 25.41301 | 37155 ft | 511 kts | 140° |
| 2026-05-05 20:01 | 32.98752 | 25.52451 | 37135 ft | 510 kts | 140° |
| 2026-05-05 20:02 | 32.88072 | 25.63594 | 37147 ft | 510 kts | 140° |
| 2026-05-05 20:02 | 32.77391 | 25.74676 | 37148 ft | 509 kts | 140° |
| 2026-05-05 20:03 | 32.66769 | 25.85653 | 37146 ft | 509 kts | 140° |
| 2026-05-05 20:03 | 32.56080 | 25.96693 | 37162 ft | 509 kts | 140° |
| 2026-05-05 20:04 | 32.45384 | 26.07693 | 37161 ft | 509 kts | 140° |
| 2026-05-05 20:04 | 32.34692 | 26.18672 | 37150 ft | 508 kts | 140° |
| 2026-05-05 20:05 | 32.23994 | 26.29592 | 37159 ft | 507 kts | 140° |
| 2026-05-05 20:05 | 32.13317 | 26.40482 | 37161 ft | 507 kts | 141° |
| 2026-05-05 20:06 | 32.02638 | 26.51314 | 37143 ft | 506 kts | 141° |
| 2026-05-05 20:06 | 31.91968 | 26.62114 | 37159 ft | 505 kts | 141° |
| 2026-05-05 20:07 | 31.81303 | 26.72888 | 37162 ft | 505 kts | 141° |
| 2026-05-05 20:07 | 31.70708 | 26.83550 | 37141 ft | 504 kts | 141° |
| 2026-05-05 20:08 | 31.60044 | 26.94240 | 37160 ft | 503 kts | 141° |
| 2026-05-05 20:08 | 31.49392 | 27.04877 | 37160 ft | 503 kts | 142° |
| 2026-05-05 20:09 | 31.38733 | 27.15489 | 37131 ft | 502 kts | 141° |
| 2026-05-05 20:09 | 31.27370 | 27.24753 | 37143 ft | 494 kts | 159° |
| 2026-05-05 20:10 | 31.14869 | 27.31504 | 37141 ft | 495 kts | 159° |
| 2026-05-05 20:10 | 31.02473 | 27.38226 | 37147 ft | 493 kts | 159° |
| 2026-05-05 20:11 | 30.90417 | 27.45850 | 37145 ft | 499 kts | 143° |
| 2026-05-05 20:11 | 30.79578 | 27.55945 | 37135 ft | 497 kts | 145° |
| 2026-05-05 20:12 | 30.68741 | 27.65935 | 37151 ft | 497 kts | 145° |
| 2026-05-05 20:12 | 30.58014 | 27.75830 | 37149 ft | 496 kts | 145° |
| 2026-05-05 20:13 | 30.47282 | 27.85709 | 37110 ft | 490 kts | 145° |
| 2026-05-05 20:13 | 30.42044 | 27.90536 | 37164 ft | 469 kts | 145° |
| 2026-05-05 20:13 | 30.36945 | 27.95210 | 37150 ft | 468 kts | 146° |
| 2026-05-05 20:14 | 30.26853 | 28.04394 | 37151 ft | 485 kts | 145° |
| 2026-05-05 20:14 | 30.16107 | 28.14211 | 37147 ft | 494 kts | 146° |
| 2026-05-05 20:15 | 30.05318 | 28.24037 | 37148 ft | 494 kts | 146° |
| 2026-05-05 20:15 | 29.94472 | 28.33858 | 37143 ft | 494 kts | 146° |
| 2026-05-05 20:16 | 29.84233 | 28.44442 | 37162 ft | 500 kts | 130° |
| 2026-05-05 20:16 | 29.75792 | 28.57072 | 37163 ft | 501 kts | 130° |
| 2026-05-05 20:17 | 29.67278 | 28.69749 | 37149 ft | 500 kts | 131° |
| 2026-05-05 20:17 | 29.58825 | 28.82309 | 37147 ft | 500 kts | 131° |
| 2026-05-05 20:18 | 29.50287 | 28.94947 | 37122 ft | 500 kts | 131° |
| 2026-05-05 20:18 | 29.42802 | 29.08350 | 37137 ft | 507 kts | 109° |
| 2026-05-05 20:18 | 29.41656 | 29.16306 | 37143 ft | 508 kts | 90° |
| 2026-05-05 20:19 | 29.41579 | 29.24396 | 37146 ft | 508 kts | 90° |
| 2026-05-05 20:19 | 29.41361 | 29.40525 | 37164 ft | 509 kts | 90° |
| 2026-05-05 20:20 | 29.41191 | 29.54060 | 37159 ft | 509 kts | 91° |
| 2026-05-05 20:20 | 29.40914 | 29.72855 | 37149 ft | 511 kts | 91° |
| 2026-05-05 20:21 | 29.40667 | 29.89143 | 37141 ft | 511 kts | 91° |
| 2026-05-05 20:21 | 29.40440 | 30.02686 | 37132 ft | 511 kts | 92° |
| 2026-05-05 20:22 | 29.40137 | 30.18890 | 37116 ft | 512 kts | 92° |
| 2026-05-05 20:22 | 29.39214 | 30.35131 | 37113 ft | 507 kts | 108° |
| 2026-05-05 20:22 | 29.36435 | 30.42452 | 37110 ft | 497 kts | 127° |
| 2026-05-05 20:23 | 29.32080 | 30.48460 | 37114 ft | 488 kts | 140° |
| 2026-05-05 20:23 | 29.22729 | 30.59583 | 37116 ft | 489 kts | 139° |
| 2026-05-05 20:24 | 29.13283 | 30.70831 | 37119 ft | 490 kts | 140° |
| 2026-05-05 20:24 | 29.03889 | 30.81959 | 37103 ft | 490 kts | 140° |
| 2026-05-05 20:25 | 28.94398 | 30.93166 | 37124 ft | 489 kts | 140° |
| 2026-05-05 20:25 | 28.84926 | 31.04329 | 37116 ft | 488 kts | 140° |
| 2026-05-05 20:26 | 28.75450 | 31.15455 | 37128 ft | 488 kts | 140° |
| 2026-05-05 20:26 | 28.73918 | 31.17253 | 37124 ft | 488 kts | 140° |
| 2026-05-05 20:27 | 28.73876 | 31.17303 | 37128 ft | 488 kts | 140° |
| 2026-05-05 20:27 | 28.69817 | 31.21370 | 35887 ft | 496 kts | 142° |
| 2026-05-05 20:27 | 28.65261 | 31.27096 | 36292 ft | 488 kts | 135° |
| 2026-05-05 20:27 | 28.61004 | 31.33131 | 36733 ft | 488 kts | 135° |
| 2026-05-05 20:28 | 28.56591 | 31.38972 | 37144 ft | 485 kts | 139° |
| 2026-05-05 20:28 | 28.47387 | 31.50297 | 37102 ft | 488 kts | 139° |
| 2026-05-05 20:29 | 28.38255 | 31.61722 | 37109 ft | 488 kts | 139° |
| 2026-05-05 20:29 | 28.32939 | 31.68395 | 37109 ft | 488 kts | 139° |
| 2026-05-05 20:30 | 28.29245 | 31.73007 | 37080 ft | 488 kts | 139° |
| 2026-05-05 20:36 | 28.27887 | 31.74705 | 37075 ft | 488 kts | 139° |
| 2026-05-05 20:36 | 28.23257 | 31.80481 | 37077 ft | 488 kts | 139° |
| 2026-05-05 20:37 | 28.14170 | 31.91739 | 37102 ft | 487 kts | 140° |
| 2026-05-05 20:37 | 28.05037 | 32.03071 | 37110 ft | 487 kts | 139° |
| 2026-05-05 20:37 | 28.01223 | 32.09539 | 37100 ft | 501 kts | 124° |
| 2026-05-05 20:38 | 27.97920 | 32.16474 | 37107 ft | 500 kts | 125° |
| 2026-05-05 20:38 | 27.91289 | 32.30353 | 37109 ft | 501 kts | 125° |
| 2026-05-05 20:39 | 27.84533 | 32.44109 | 37094 ft | 501 kts | 125° |
| 2026-05-05 20:39 | 27.77830 | 32.57922 | 37096 ft | 502 kts | 126° |
| 2026-05-05 20:40 | 27.71108 | 32.71729 | 37087 ft | 501 kts | 126° |
| 2026-05-05 20:40 | 27.64423 | 32.85381 | 37078 ft | 500 kts | 126° |
| 2026-05-05 20:41 | 27.57739 | 32.99019 | 37068 ft | 500 kts | 126° |
| 2026-05-05 20:41 | 27.51001 | 33.12721 | 37066 ft | 500 kts | 126° |
| 2026-05-05 20:42 | 27.44409 | 33.26116 | 37066 ft | 465 kts | 127° |
| 2026-05-05 20:42 | 27.38491 | 33.38760 | 37047 ft | 462 kts | 115° |
| 2026-05-05 20:42 | 27.37191 | 33.46062 | 35710 ft | 489 kts | 102° |
| 2026-05-05 20:43 | 27.36033 | 33.53597 | 33340 ft | 483 kts | 117° |
| 2026-05-05 20:43 | 27.32804 | 33.59777 | 32031 ft | 448 kts | 123° |
| 2026-05-05 20:43 | 27.31086 | 33.66453 | 30736 ft | 436 kts | 110° |
| 2026-05-05 20:43 | 27.28041 | 33.71807 | 29357 ft | 394 kts | 154° |
| 2026-05-05 20:44 | 27.23307 | 33.72885 | 28036 ft | 357 kts | 201° |
| 2026-05-05 20:44 | 27.19152 | 33.70089 | 26734 ft | 353 kts | 221° |
| 2026-05-05 20:44 | 27.15330 | 33.66591 | 25467 ft | 355 kts | 230° |
| 2026-05-05 20:44 | 27.12955 | 33.61840 | 24259 ft | 352 kts | 256° |
| 2026-05-05 20:45 | 27.13321 | 33.50738 | 21627 ft | 364 kts | 277° |
| 2026-05-05 20:45 | 27.14136 | 33.45067 | 19943 ft | 370 kts | 277° |
| 2026-05-05 20:45 | 27.15287 | 33.39540 | 18299 ft | 358 kts | 291° |
| 2026-05-05 20:46 | 27.18105 | 33.35129 | 16546 ft | 353 kts | 314° |
| 2026-05-05 20:46 | 27.22294 | 33.32403 | 15056 ft | 346 kts | 338° |
| 2026-05-05 20:46 | 27.26998 | 33.31838 | 13756 ft | 340 kts | 2° |
| 2026-05-05 20:46 | 27.31453 | 33.33439 | 12338 ft | 337 kts | 26° |
| 2026-05-05 20:47 | 27.34932 | 33.36865 | 11131 ft | 328 kts | 51° |
| 2026-05-05 20:47 | 27.36882 | 33.41355 | 11058 ft | 323 kts | 74° |
| 2026-05-05 20:47 | 27.37244 | 33.46381 | 11049 ft | 325 kts | 94° |
| 2026-05-05 20:47 | 27.36727 | 33.51421 | 11035 ft | 324 kts | 99° |
| 2026-05-05 20:48 | 27.35858 | 33.56401 | 11000 ft | 323 kts | 113° |
| 2026-05-05 20:48 | 27.33224 | 33.60332 | 11021 ft | 314 kts | 147° |
| 2026-05-05 20:48 | 27.29291 | 33.62143 | 11030 ft | 305 kts | 170° |
| 2026-05-05 20:48 | 27.25172 | 33.63356 | 10517 ft | 304 kts | 169° |
| 2026-05-05 20:49 | 27.21102 | 33.64585 | 9972 ft | 301 kts | 169° |
| 2026-05-05 20:49 | 27.17080 | 33.65783 | 9355 ft | 298 kts | 169° |
| 2026-05-05 20:49 | 27.13083 | 33.66969 | 8745 ft | 296 kts | 169° |
| 2026-05-05 20:49 | 27.11093 | 33.67558 | 8450 ft | 295 kts | 168° |
| 2026-05-05 20:50 | 27.09109 | 33.68144 | 8159 ft | 293 kts | 168° |
| 2026-05-05 20:50 | 27.07143 | 33.68726 | 7872 ft | 292 kts | 168° |
| 2026-05-05 20:50 | 27.05178 | 33.69308 | 7564 ft | 291 kts | 168° |
| 2026-05-05 20:50 | 27.03251 | 33.69879 | 7262 ft | 290 kts | 168° |
| 2026-05-05 20:51 | 27.01311 | 33.70456 | 6952 ft | 287 kts | 168° |
| 2026-05-05 20:51 | 26.99375 | 33.71029 | 6456 ft | 290 kts | 168° |
| 2026-05-05 20:51 | 26.97436 | 33.71699 | 5852 ft | 295 kts | 155° |
| 2026-05-05 20:51 | 26.95916 | 33.73192 | 5159 ft | 292 kts | 121° |
| 2026-05-05 20:52 | 26.95355 | 33.75315 | 4468 ft | 283 kts | 87° |
| 2026-05-05 20:52 | 26.95733 | 33.77428 | 3794 ft | 273 kts | 65° |
| 2026-05-05 20:52 | 26.96677 | 33.79243 | 3229 ft | 270 kts | 48° |
| 2026-05-05 20:52 | 26.98043 | 33.80698 | 2654 ft | 271 kts | 39° |
| 2026-05-05 20:53 | 26.99461 | 33.82077 | 2272 ft | 265 kts | 39° |
| 2026-05-05 20:53 | 27.00806 | 33.83384 | 2182 ft | 245 kts | 34° |
| 2026-05-05 20:53 | 27.02186 | 33.84250 | 2191 ft | 211 kts | 8° |
| 2026-05-05 20:53 | 27.03525 | 33.84304 | 2217 ft | 182 kts | 345° |
| 2026-05-05 20:54 | 27.04709 | 33.83965 | 2213 ft | 170 kts | 342° |
| 2026-05-05 20:54 | 27.05811 | 33.83648 | 2054 ft | 156 kts | 342° |
| 2026-05-05 20:54 | 27.06798 | 33.83361 | 1880 ft | 139 kts | 341° |
| 2026-05-05 20:54 | 27.07705 | 33.83096 | 1731 ft | 127 kts | 340° |
| 2026-05-05 20:55 | 27.11743 | 33.82056 | 821 ft | 130 kts | 340° |
| 2026-05-05 20:55 | 27.12587 | 33.81714 | 820 ft | 127 kts | 333° |
| 2026-05-05 20:55 | 27.13445 | 33.81436 | 662 ft | 128 kts | 342° |
| 2026-05-05 20:55 | 27.14303 | 33.81170 | 478 ft | 133 kts | 343° |
| 2026-05-05 20:56 | 27.15785 | 33.80737 | 103 ft | 131 kts | 339° |
| 2026-05-05 20:56 | 27.16631 | 33.80456 | 47 ft | 116 kts | 345° |
| 2026-05-05 20:56 | 27.17235 | 33.80280 | 52 ft | 66 kts | 346° |
| 2026-05-05 20:56 | 27.17612 | 33.80167 | 54 ft | 49 kts | 344° |
| 2026-05-05 20:57 | 27.17927 | 33.80076 | 51 ft | 45 kts | 344° |
| 2026-05-05 20:57 | 27.18274 | 33.79971 | 51 ft | 47 kts | 345° |
| 2026-05-05 20:57 | 27.18447 | 33.79943 | 51 ft | 9 kts | 56° |
| 2026-05-05 20:57 | 27.18460 | 33.79995 | 50 ft | 9 kts | 77° |
| 2026-05-05 20:58 | 27.18461 | 33.79998 | 50 ft | 9 kts | 77° |
| 2026-05-05 20:58 | 27.18470 | 33.80069 | 50 ft | 8 kts | 104° |
| 2026-05-05 20:58 | 27.18432 | 33.80101 | 50 ft | 6 kts | 164° |
| 2026-05-05 20:58 | 27.18367 | 33.80121 | 51 ft | 21 kts | 163° |
| 2026-05-05 20:59 | 27.18199 | 33.80167 | 52 ft | 26 kts | 164° |
| 2026-05-05 20:59 | 27.18030 | 33.80218 | 54 ft | 25 kts | 166° |
| 2026-05-05 20:59 | 27.17860 | 33.80268 | 54 ft | 22 kts | 165° |
| 2026-05-05 20:59 | 27.17798 | 33.80315 | 54 ft | 2 kts | 66° |
| 2026-05-05 21:00 | 27.17813 | 33.80339 | 55 ft | 12 kts | 64° |
| 2026-05-05 21:00 | 27.17847 | 33.80478 | 58 ft | 6 kts | 75° |
| 2026-05-05 21:00 | 27.17864 | 33.80507 | 58 ft | 4 kts | 43° |
| 2026-05-05 21:00 | 27.17904 | 33.80508 | 53 ft | 7 kts | 348° |
| 2026-05-05 21:01 | 27.17913 | 33.80516 | 55 ft | 3 kts | 55° |
| 2026-05-05 21:01 | 27.17920 | 33.80540 | 57 ft | 3 kts | 76° |
| 2026-05-05 21:01 | 27.17924 | 33.80559 | 52 ft | 2 kts | 75° |
| 2026-05-05 21:01 | 27.17929 | 33.80577 | 58 ft | 4 kts | 75° |
| 2026-05-05 21:02 | 27.17932 | 33.80593 | 53 ft | 1 kts | 74° |
| 2026-05-05 21:02 | 27.17935 | 33.80601 | 52 ft | 1 kts | 75° |